Time;durP1;ratioP1;P1;durP2;ratioP2;P2;SDS_P1;SDS_P2;PMS_P1;PMS_P2;Temp;Humidity;BMP_temperature;BMP_pressure;BME280_temperature;BME280_humidity;BME280_pressure;Samples;Min_cycle;Max_cycle;Signal;HPM_P1;HPM_P2
2021/11/06 00:00:17;;;;;;;28.25;15.43;;;;;;;7.56;80.96;100840.13;5025508;28;20088;-69
2021/11/06 00:02:42;;;;;;;34.35;13.95;;;;;;;7.56;80.65;100848.00;5026006;28;20497;-69
2021/11/06 00:05:08;;;;;;;35.15;16.38;;;;;;;7.58;81.14;100842.69;5026012;28;20037;-70
2021/11/06 00:07:34;;;;;;;26.55;14.40;;;;;;;7.58;80.74;100840.97;5025617;28;20128;-70
2021/11/06 00:09:59;;;;;;;30.13;14.13;;;;;;;7.53;81.00;100846.28;5024095;28;20552;-69
2021/11/06 00:12:26;;;;;;;27.88;16.35;;;;;;;7.50;81.32;100843.72;5025845;28;20501;-71
2021/11/06 00:14:51;;;;;;;27.52;15.23;;;;;;;7.50;81.17;100851.59;5026335;28;20041;-70
2021/11/06 00:17:16;;;;;;;30.42;15.77;;;;;;;7.48;80.90;100847.25;5025455;28;20042;-70
2021/11/06 00:19:42;;;;;;;28.58;13.82;;;;;;;7.46;81.14;100849.06;5026110;28;20468;-70
2021/11/06 00:22:08;;;;;;;17.65;12.93;;;;;;;7.43;80.75;100849.09;5023966;28;20064;-70
2021/11/06 00:24:35;;;;;;;20.35;13.68;;;;;;;7.43;81.21;100843.84;5026145;28;20045;-70
2021/11/06 00:27:00;;;;;;;20.67;14.15;;;;;;;7.42;81.13;100844.78;5025981;28;20064;-71
2021/11/06 00:29:25;;;;;;;26.00;11.60;;;;;;;7.42;80.78;100845.63;5024958;28;20041;-71
2021/11/06 00:31:51;;;;;;;30.85;12.90;;;;;;;7.39;80.64;100852.72;5024022;28;20037;-70
2021/11/06 00:34:16;;;;;;;24.73;12.38;;;;;;;7.37;80.51;100844.84;5025553;28;20030;-70
2021/11/06 00:36:42;;;;;;;21.70;12.38;;;;;;;7.30;80.90;100857.22;5025932;28;20091;-70
2021/11/06 00:39:08;;;;;;;20.48;11.80;;;;;;;7.25;81.01;100855.56;5024437;28;20026;-70
2021/11/06 00:41:33;;;;;;;17.80;10.25;;;;;;;7.23;81.10;100852.97;5025396;28;20037;-70
2021/11/06 00:43:59;;;;;;;22.85;12.63;;;;;;;7.16;81.22;100850.50;5025535;28;20109;-68
2021/11/06 00:46:24;;;;;;;16.92;10.27;;;;;;;7.14;81.31;100854.88;5025688;28;20033;-70
2021/11/06 00:48:50;;;;;;;20.13;11.55;;;;;;;7.05;81.59;100854.16;5023308;28;20044;-70
2021/11/06 00:51:15;;;;;;;23.67;13.35;;;;;;;7.07;81.36;100862.88;5024931;28;20108;-70
2021/11/06 00:53:41;;;;;;;24.88;12.90;;;;;;;7.07;81.12;100862.03;5025716;28;20061;-70
2021/11/06 00:56:06;;;;;;;19.10;11.52;;;;;;;7.05;81.25;100861.19;5025206;28;20041;-70
2021/11/06 00:58:31;;;;;;;21.10;12.57;;;;;;;7.02;81.45;100859.47;5025706;28;20041;-70
2021/11/06 01:00:57;;;;;;;25.45;12.00;;;;;;;7.02;81.40;100854.22;5025041;28;20550;-70
2021/11/06 01:03:22;;;;;;;19.70;12.38;;;;;;;7.01;81.33;100851.63;5025802;28;20500;-70
2021/11/06 01:05:48;;;;;;;25.00;15.57;;;;;;;7.01;81.41;100852.47;5023989;28;20057;-69
2021/11/06 01:08:13;;;;;;;19.17;12.13;;;;;;;6.98;81.63;100855.16;5025484;28;20124;-70
2021/11/06 01:10:39;;;;;;;23.23;12.85;;;;;;;6.95;81.53;100857.84;5024990;28;20075;-70
2021/11/06 01:13:05;;;;;;;25.65;12.70;;;;;;;6.97;81.31;100857.84;5025427;28;20405;-70
2021/11/06 01:15:30;;;;;;;26.00;13.60;;;;;;;6.94;81.15;100856.13;5025117;28;20583;-70
2021/11/06 01:17:55;;;;;;;17.05;12.07;;;;;;;6.92;81.14;100859.66;5025619;28;20033;-71
2021/11/06 01:20:21;;;;;;;21.02;12.00;;;;;;;6.95;81.33;100863.09;5026716;28;20038;-71
2021/11/06 01:22:46;;;;;;;21.73;13.20;;;;;;;6.93;80.94;100856.16;5027646;28;20091;-71
2021/11/06 01:25:13;;;;;;;21.27;13.15;;;;;;;6.91;81.17;100857.91;5026908;28;20087;-72
2021/11/06 01:27:39;;;;;;;18.20;14.15;;;;;;;6.88;81.34;100859.69;5027163;28;20420;-71
2021/11/06 01:30:07;;;;;;;21.98;14.00;;;;;;;6.88;81.02;100862.31;5028116;28;20064;-69
2021/11/06 01:32:32;;;;;;;32.45;13.98;;;;;;;6.88;81.21;100858.84;5028824;28;20033;-70
2021/11/06 01:34:58;;;;;;;25.45;14.10;;;;;;;6.88;81.08;100859.69;5029219;28;20021;-70
2021/11/06 01:37:24;;;;;;;23.85;13.30;;;;;;;6.91;81.07;100857.91;5028484;28;20145;-68
2021/11/06 01:39:49;;;;;;;23.42;12.23;;;;;;;6.86;80.60;100864.09;5026838;28;20112;-70
2021/11/06 01:42:15;;;;;;;19.75;13.77;;;;;;;6.83;80.78;100860.69;5027570;28;20079;-71
2021/11/06 01:44:40;;;;;;;21.77;14.05;;;;;;;6.80;80.67;100864.22;5027993;28;20044;-70
2021/11/06 01:47:09;;;;;;;22.75;14.98;;;;;;;6.77;80.49;100859.03;5028868;28;20036;-70
2021/11/06 01:49:35;;;;;;;17.60;13.43;;;;;;;6.75;80.37;100865.19;5029020;28;20045;-70
2021/11/06 01:52:00;;;;;;;15.23;11.02;;;;;;;6.74;80.61;100859.06;5028590;28;20029;-71
2021/11/06 01:54:25;;;;;;;18.92;12.90;;;;;;;6.74;80.55;100860.81;5028536;28;20448;-71
2021/11/06 01:56:54;;;;;;;22.27;12.02;;;;;;;6.75;80.35;100857.31;5025335;28;20469;-69
2021/11/06 01:59:20;;;;;;;23.35;12.60;;;;;;;6.73;80.37;100851.25;5028386;28;20057;-71
2021/11/06 02:01:46;;;;;;;17.77;13.20;;;;;;;6.69;80.79;100855.66;5002857;28;20132;-71
2021/11/06 02:04:12;;;;;;;22.27;13.43;;;;;;;6.70;80.51;100848.69;5027088;28;20491;-71
2021/11/06 02:06:38;;;;;;;20.35;13.45;;;;;;;6.65;80.62;100851.38;5028085;28;20756;-72
2021/11/06 02:09:03;;;;;;;21.27;13.77;;;;;;;6.63;80.63;100848.75;5026920;28;20664;-69
2021/11/06 02:11:29;;;;;;;20.55;14.13;;;;;;;6.65;80.58;100854.84;5027456;28;20044;-71
2021/11/06 02:13:54;;;;;;;20.20;12.48;;;;;;;6.66;80.87;100853.94;5028940;28;20040;-71
2021/11/06 02:16:20;;;;;;;24.67;15.27;;;;;;;6.62;80.77;100854.00;5028525;28;20049;-71
2021/11/06 02:18:47;;;;;;;22.38;16.13;;;;;;;6.60;80.61;100850.56;5028060;28;20086;-71
2021/11/06 02:21:13;;;;;;;27.00;16.73;;;;;;;6.57;80.73;100848.88;5027188;28;20072;-72
2021/11/06 02:23:42;;;;;;;24.67;14.60;;;;;;;6.58;80.92;100852.34;5026391;28;20098;-71
2021/11/06 02:26:09;;;;;;;19.85;14.60;;;;;;;6.60;80.54;100851.44;5027615;28;20048;-72
2021/11/06 02:28:35;;;;;;;26.83;15.32;;;;;;;6.59;80.56;100848.81;5027652;28;20453;-70
2021/11/06 02:31:00;;;;;;;21.75;14.63;;;;;;;6.57;80.70;100850.59;5026513;28;20064;-72
2021/11/06 02:33:26;;;;;;;27.30;14.38;;;;;;;6.55;80.56;100845.41;5027270;28;20041;-71
2021/11/06 02:35:51;;;;;;;28.38;15.20;;;;;;;6.58;80.74;100847.97;5027852;28;20512;-70
2021/11/06 02:38:17;;;;;;;22.45;16.65;;;;;;;6.55;80.54;100845.41;5024153;28;20456;-72
2021/11/06 02:40:42;;;;;;;24.27;14.18;;;;;;;6.55;80.58;100845.41;5026648;28;20044;-71
2021/11/06 02:43:09;;;;;;;22.23;14.25;;;;;;;6.57;80.66;100847.97;5027092;28;20586;-70
2021/11/06 02:45:36;;;;;;;19.35;13.98;;;;;;;6.59;80.42;100846.22;5025579;28;20132;-72
2021/11/06 02:48:02;;;;;;;20.15;14.05;;;;;;;6.59;80.56;100838.34;5027261;28;20037;-70
2021/11/06 02:50:28;;;;;;;31.92;15.35;;;;;;;6.60;80.23;100851.44;5026770;28;20063;-71
2021/11/06 02:52:53;;;;;;;19.33;13.45;;;;;;;6.58;80.26;100852.34;5009738;28;20094;-71
2021/11/06 02:55:19;;;;;;;22.83;15.10;;;;;;;6.54;80.30;100848.91;5025338;28;20094;-71
2021/11/06 02:57:44;;;;;;;23.52;16.58;;;;;;;6.55;80.28;100852.41;5009439;28;20700;-71
2021/11/06 03:00:11;;;;;;;26.98;15.70;;;;;;;6.53;80.32;100849.78;5025571;28;20053;-71
2021/11/06 03:02:37;;;;;;;19.88;14.98;;;;;;;6.53;80.37;100852.41;5026960;28;20040;-71
2021/11/06 03:05:07;;;;;;;21.33;15.00;;;;;;;6.54;80.22;100858.50;5026847;28;20123;-71
2021/11/06 03:07:33;;;;;;;21.88;14.65;;;;;;;6.52;80.10;100844.56;5026904;28;20094;-71
2021/11/06 03:09:59;;;;;;;21.95;14.57;;;;;;;6.48;80.36;100841.16;5026823;28;20124;-71
2021/11/06 03:12:25;;;;;;;23.90;16.10;;;;;;;6.42;80.52;100836.88;5027375;28;20033;-71
2021/11/06 03:14:51;;;;;;;25.85;17.58;;;;;;;6.40;80.62;100835.16;5025839;28;20036;-71
2021/11/06 03:17:17;;;;;;;24.92;15.27;;;;;;;6.38;80.89;100835.19;5026761;28;20398;-71
2021/11/06 03:19:42;;;;;;;23.75;14.88;;;;;;;6.39;80.92;100831.66;5027006;28;20038;-72
2021/11/06 03:22:10;;;;;;;29.48;17.60;;;;;;;6.37;80.44;100833.44;5025777;28;20041;-71
2021/11/06 03:24:36;;;;;;;26.65;16.80;;;;;;;6.37;80.48;100832.56;5026776;28;20045;-70
2021/11/06 03:27:01;;;;;;;24.92;13.63;;;;;;;6.37;80.69;100840.44;5033492;28;20133;-71
2021/11/06 03:29:26;;;;;;;25.95;13.95;;;;;;;6.37;80.56;100835.19;5031706;28;20045;-70
2021/11/06 03:31:52;;;;;;;26.05;13.88;;;;;;;6.42;80.54;100834.25;5025959;28;20485;-71
2021/11/06 03:34:17;;;;;;;32.58;17.40;;;;;;;6.34;80.26;100832.63;5026714;28;20040;-71
2021/11/06 03:36:43;;;;;;;26.48;17.70;;;;;;;6.27;80.64;100834.47;5026519;28;20052;-71
2021/11/06 03:39:08;;;;;;;26.85;15.88;;;;;;;6.27;80.52;100844.94;5025240;28;20044;-71
2021/11/06 03:41:34;;;;;;;28.83;14.48;;;;;;;6.33;80.49;100841.38;5025392;28;20037;-71
2021/11/06 03:43:59;;;;;;;21.85;15.43;;;;;;;6.27;80.64;100826.59;5026048;28;20033;-70
2021/11/06 03:46:25;;;;;;;18.58;14.07;;;;;;;6.27;80.79;100844.06;5026355;28;20038;-70
2021/11/06 03:48:50;;;;;;;17.48;13.25;;;;;;;6.30;80.56;100841.41;5026100;28;20112;-69
2021/11/06 03:51:16;;;;;;;22.98;14.60;;;;;;;6.33;80.39;100841.38;5022667;28;20045;-70
2021/11/06 03:53:42;;;;;;;22.00;13.88;;;;;;;6.32;80.32;100847.50;5024724;28;20025;-70
2021/11/06 03:56:07;;;;;;;16.77;13.18;;;;;;;6.35;80.32;100844.81;5026218;28;20542;-70
2021/11/06 03:58:33;;;;;;;23.42;14.70;;;;;;;6.34;80.34;100854.44;5026376;28;20044;-70
2021/11/06 04:00:59;;;;;;;24.60;14.50;;;;;;;6.30;79.81;100852.78;5025494;28;20421;-70
2021/11/06 04:03:24;;;;;;;20.38;14.20;;;;;;;6.24;80.16;100848.47;5026842;28;20034;-70
2021/11/06 04:05:50;;;;;;;19.45;14.00;;;;;;;6.25;80.05;100851.94;5026754;28;20087;-71
2021/11/06 04:08:15;;;;;;;25.70;14.15;;;;;;;6.23;80.20;100848.50;5026761;28;20037;-70
2021/11/06 04:10:41;;;;;;;21.95;14.80;;;;;;;6.21;80.18;100860.75;5025676;28;20383;-71
2021/11/06 04:13:06;;;;;;;20.88;13.27;;;;;;;6.22;80.20;100858.09;5026386;28;20034;-70
2021/11/06 04:15:32;;;;;;;20.60;15.57;;;;;;;6.20;80.27;100854.66;5026189;28;20045;-70
2021/11/06 04:17:58;;;;;;;27.67;16.23;;;;;;;6.20;80.49;100861.63;5026542;28;20754;-70
2021/11/06 04:20:23;;;;;;;24.92;15.38;;;;;;;6.21;80.18;100861.59;5025882;28;20087;-70
2021/11/06 04:22:51;;;;;;;19.10;14.95;;;;;;;6.19;80.03;100858.13;5024870;28;20034;-71
2021/11/06 04:25:18;;;;;;;22.65;14.35;;;;;;;6.21;80.32;100859.00;5025692;28;20512;-70
2021/11/06 04:27:44;;;;;;;20.48;15.25;;;;;;;6.16;80.12;100858.19;5026051;28;20042;-71
2021/11/06 04:30:09;;;;;;;25.15;16.20;;;;;;;6.13;80.45;100860.88;5025633;28;20033;-71
2021/11/06 04:32:35;;;;;;;23.73;14.68;;;;;;;6.14;80.46;100866.97;5025468;28;20404;-71
2021/11/06 04:35:00;;;;;;;21.85;15.15;;;;;;;6.12;80.19;100864.34;5025723;28;20026;-71
2021/11/06 04:37:26;;;;;;;20.95;15.38;;;;;;;6.08;80.69;100859.16;5026031;28;20184;-70
2021/11/06 04:39:51;;;;;;;35.85;15.95;;;;;;;6.05;80.80;100867.06;5025864;28;20038;-70
2021/11/06 04:42:16;;;;;;;28.45;15.85;;;;;;;6.04;80.94;100863.59;5023509;28;20592;-71
2021/11/06 04:44:42;;;;;;;26.65;17.55;;;;;;;6.05;80.67;100857.47;5025954;28;20037;-71
2021/11/06 04:47:07;;;;;;;26.00;18.35;;;;;;;6.04;80.62;100860.97;5025642;28;20033;-70
2021/11/06 04:49:33;;;;;;;28.63;16.70;;;;;;;6.02;80.72;100853.13;5025853;28;20428;-70
2021/11/06 04:51:58;;;;;;;22.80;16.98;;;;;;;6.03;80.97;100856.63;5023809;28;20034;-70
2021/11/06 04:54:24;;;;;;;28.25;18.88;;;;;;;6.04;80.83;100855.75;5026780;28;20420;-69
2021/11/06 04:56:50;;;;;;;25.17;17.15;;;;;;;5.97;80.88;100846.22;5028145;28;20450;-70
2021/11/06 04:59:16;;;;;;;24.10;17.73;;;;;;;5.96;80.92;100850.59;5027809;28;20041;-70
2021/11/06 05:01:41;;;;;;;21.83;15.88;;;;;;;5.97;80.95;100851.47;5011142;28;20034;-70
2021/11/06 05:04:06;;;;;;;27.85;16.27;;;;;;;5.96;80.56;100849.75;5029301;28;20392;-70
2021/11/06 05:06:32;;;;;;;26.75;18.15;;;;;;;5.96;80.93;100848.00;5029229;28;20041;-71
2021/11/06 05:08:57;;;;;;;27.25;16.58;;;;;;;5.96;80.98;100839.28;5028090;28;20030;-71
2021/11/06 05:11:23;;;;;;;26.50;16.70;;;;;;;5.96;80.67;100839.28;5029076;28;20046;-71
2021/11/06 05:13:48;;;;;;;21.60;15.32;;;;;;;5.95;80.32;100837.53;5028992;28;20037;-71
2021/11/06 05:16:14;;;;;;;23.58;16.92;;;;;;;5.95;80.49;100843.63;5029583;28;20114;-71
2021/11/06 05:18:39;;;;;;;32.00;17.98;;;;;;;5.97;80.98;100847.09;5028408;28;20451;-71
2021/11/06 05:21:04;;;;;;;26.15;16.55;;;;;;;5.97;81.13;100847.09;5029064;28;20037;-71
2021/11/06 05:23:30;;;;;;;27.60;15.75;;;;;;;5.97;80.14;100851.47;5029226;28;20034;-70
2021/11/06 05:25:55;;;;;;;29.38;17.83;;;;;;;5.95;80.29;100850.63;5029711;28;20489;-70
2021/11/06 05:28:21;;;;;;;28.85;17.65;;;;;;;5.97;80.54;100848.84;5029471;28;20030;-71
2021/11/06 05:30:47;;;;;;;25.27;16.15;;;;;;;5.97;80.23;100847.09;5028579;28;20535;-71
2021/11/06 05:33:13;;;;;;;26.80;17.90;;;;;;;5.99;80.87;100857.56;5029771;28;20552;-71
2021/11/06 05:35:39;;;;;;;24.23;18.88;;;;;;;5.97;80.84;100856.72;5029640;28;20262;-71
2021/11/06 05:38:04;;;;;;;27.35;18.08;;;;;;;5.96;80.53;100849.75;5029989;28;20033;-70
2021/11/06 05:40:30;;;;;;;25.58;17.38;;;;;;;5.97;80.59;100846.22;5028582;28;20038;-70
2021/11/06 05:42:56;;;;;;;22.80;15.50;;;;;;;5.95;79.75;100848.84;5027768;28;20033;-70
2021/11/06 05:45:22;;;;;;;19.77;15.45;;;;;;;5.93;79.76;100842.78;5028152;28;20036;-70
2021/11/06 05:47:47;;;;;;;23.40;15.80;;;;;;;5.93;79.70;100842.78;5029214;28;20033;-69
2021/11/06 05:50:14;;;;;;;21.33;15.27;;;;;;;5.89;79.27;100842.84;5027313;28;20037;-69
2021/11/06 05:52:40;;;;;;;25.40;14.15;;;;;;;5.86;79.30;100838.50;5029348;28;20033;-70
2021/11/06 05:55:08;;;;;;;17.60;12.90;;;;;;;5.83;79.40;100838.53;5029141;28;20037;-70
2021/11/06 05:57:35;;;;;;;23.55;15.23;;;;;;;5.86;79.07;100835.00;5028988;28;20602;-70
2021/11/06 06:00:02;;;;;;;21.17;13.77;;;;;;;5.85;79.01;100831.53;5028893;28;20041;-72
2021/11/06 06:02:28;;;;;;;20.27;13.93;;;;;;;5.85;78.99;100830.66;5029056;28;20496;-71
2021/11/06 06:04:53;;;;;;;23.27;14.95;;;;;;;5.80;78.77;100831.56;5029026;28;20068;-71
2021/11/06 06:07:18;;;;;;;16.88;11.48;;;;;;;5.82;78.21;100837.66;5028677;28;20069;-70
2021/11/06 06:09:44;;;;;;;18.50;12.18;;;;;;;5.80;77.97;100831.56;5028318;28;20034;-71
2021/11/06 06:12:10;;;;;;;21.55;11.73;;;;;;;5.86;78.50;100845.47;5028438;28;20033;-70
2021/11/06 06:14:35;;;;;;;22.20;12.35;;;;;;;5.81;78.07;100841.19;5027429;28;20037;-70
2021/11/06 06:17:00;;;;;;;18.13;10.40;;;;;;;5.81;77.99;100833.31;5028430;28;20044;-70
2021/11/06 06:19:26;;;;;;;21.63;12.43;;;;;;;5.83;77.81;100846.38;5027774;28;20384;-71
2021/11/06 06:21:51;;;;;;;20.98;12.30;;;;;;;5.88;77.66;100844.59;5028077;28;20041;-71
2021/11/06 06:24:16;;;;;;;18.00;11.70;;;;;;;5.85;77.90;100860.31;5028257;28;20044;-71
2021/11/06 06:26:42;;;;;;;17.60;13.52;;;;;;;5.82;77.89;100869.06;5028155;28;20037;-71
2021/11/06 06:29:07;;;;;;;15.85;11.07;;;;;;;5.81;77.64;100869.09;5028794;28;20098;-72
2021/11/06 06:31:32;;;;;;;18.80;12.93;;;;;;;5.80;77.79;100878.66;5028085;28;20163;-72
2021/11/06 06:33:58;;;;;;;22.45;13.68;;;;;;;5.79;78.04;100874.34;5027252;28;20029;-70
2021/11/06 06:36:23;;;;;;;23.77;13.75;;;;;;;5.76;78.19;100879.63;5027036;28;20045;-70
2021/11/06 06:38:48;;;;;;;20.02;13.80;;;;;;;5.75;78.12;100880.47;5028394;28;20147;-71
2021/11/06 06:41:15;;;;;;;17.95;13.32;;;;;;;5.76;78.16;100887.47;5027531;28;20038;-70
2021/11/06 06:43:40;;;;;;;21.98;13.30;;;;;;;5.74;78.39;100886.63;5027253;28;20527;-70
2021/11/06 06:46:06;;;;;;;22.38;13.75;;;;;;;5.72;78.57;100885.75;5028321;28;20034;-70
2021/11/06 06:48:31;;;;;;;20.75;13.15;;;;;;;5.74;78.07;100890.97;5028760;28;20060;-70
2021/11/06 06:50:57;;;;;;;26.70;14.40;;;;;;;5.71;78.43;100889.28;5026314;28;20049;-70
2021/11/06 06:53:22;;;;;;;20.27;14.40;;;;;;;5.72;78.12;100890.13;5028474;28;20156;-71
2021/11/06 06:55:48;;;;;;;19.63;13.65;;;;;;;5.70;78.61;100891.91;5027991;28;20060;-71
2021/11/06 06:58:13;;;;;;;22.10;14.25;;;;;;;5.76;78.62;100900.53;5028281;28;20037;-71
2021/11/06 07:00:40;;;;;;;20.85;11.98;;;;;;;5.78;78.29;100903.13;5027113;28;20125;-69
2021/11/06 07:03:05;;;;;;;23.90;12.70;;;;;;;5.81;78.14;100903.13;5025821;28;20037;-70
2021/11/06 07:05:31;;;;;;;19.20;12.27;;;;;;;5.86;78.05;100906.53;5027641;28;20041;-70
2021/11/06 07:07:58;;;;;;;17.52;11.73;;;;;;;5.84;77.77;100902.22;5028152;28;20060;-70
2021/11/06 07:10:24;;;;;;;21.58;13.57;;;;;;;5.88;77.55;100906.50;5027243;28;20148;-69
2021/11/06 07:12:49;;;;;;;17.35;11.35;;;;;;;5.92;77.23;100903.84;5027241;28;20767;-72
2021/11/06 07:15:15;;;;;;;18.95;11.00;;;;;;;6.00;76.75;100903.78;5029505;28;20117;-70
2021/11/06 07:17:41;;;;;;;17.83;10.77;;;;;;;6.04;77.05;100886.28;5029038;28;20037;-71
2021/11/06 07:20:08;;;;;;;15.63;11.27;;;;;;;6.10;76.71;100899.28;5028540;28;20061;-70
2021/11/06 07:22:35;;;;;;;17.35;9.60;;;;;;;6.17;76.41;100891.31;5031678;28;20547;-71
2021/11/06 07:25:00;;;;;;;15.25;9.27;;;;;;;6.25;76.23;100891.22;5031151;28;20606;-73
2021/11/06 07:27:25;;;;;;;14.30;9.93;;;;;;;6.27;75.46;100886.84;5029624;28;20053;-76
2021/11/06 07:29:51;;;;;;;14.95;9.32;;;;;;;6.31;75.15;100888.53;5028115;28;20120;-76
2021/11/06 07:32:16;;;;;;;14.05;9.10;;;;;;;6.39;75.14;100894.53;5026362;28;20034;-76
2021/11/06 07:34:42;;;;;;;11.88;8.85;;;;;;;6.42;75.45;100898.84;5027595;28;20025;-75
2021/11/06 07:37:08;;;;;;;14.43;9.40;;;;;;;6.49;74.52;100897.00;5025330;28;20672;-75
2021/11/06 07:39:34;;;;;;;11.23;7.97;;;;;;;6.56;74.63;100907.38;5027213;28;20052;-74
2021/11/06 07:41:59;;;;;;;14.20;7.85;;;;;;;6.62;74.49;100901.16;5008540;28;20033;-73
2021/11/06 07:44:25;;;;;;;13.57;7.78;;;;;;;6.66;73.70;100900.25;5025703;28;20041;-73
2021/11/06 07:46:50;;;;;;;12.40;8.07;;;;;;;6.72;74.25;100900.16;5027030;28;20044;-73
2021/11/06 07:49:16;;;;;;;11.43;8.10;;;;;;;6.78;73.73;100896.56;5026825;28;20037;-73
2021/11/06 07:51:41;;;;;;;10.68;6.88;;;;;;;6.80;73.78;100900.91;5023309;28;20112;-74
2021/11/06 07:54:06;;;;;;;11.25;7.10;;;;;;;6.82;73.38;100893.88;5027045;28;20026;-74
2021/11/06 07:56:34;;;;;;;9.65;6.13;;;;;;;6.80;73.66;100906.16;5025602;28;20044;-73
2021/11/06 07:59:00;;;;;;;12.27;7.40;;;;;;;6.76;72.87;100899.22;5027165;28;20049;-73
2021/11/06 08:01:25;;;;;;;9.18;6.60;;;;;;;6.77;73.01;100914.06;5025734;28;20034;-73
2021/11/06 08:03:50;;;;;;;9.98;7.43;;;;;;;6.80;73.07;100897.44;5026137;28;20033;-72
2021/11/06 08:06:18;;;;;;;10.85;7.13;;;;;;;6.79;72.98;100901.81;5028099;28;20541;-72
2021/11/06 08:08:43;;;;;;;10.43;5.32;;;;;;;6.85;73.05;100896.44;5029632;28;20041;-72
2021/11/06 08:11:08;;;;;;;13.13;7.22;;;;;;;6.86;72.78;100910.41;5027218;28;20091;-70
2021/11/06 08:13:34;;;;;;;11.15;7.43;;;;;;;6.94;72.56;100900.69;5009911;28;20128;-72
2021/11/06 08:16:00;;;;;;;11.73;7.78;;;;;;;6.93;72.43;100898.94;5015983;28;20068;-72
2021/11/06 08:18:26;;;;;;;18.50;10.13;;;;;;;6.97;72.53;100900.63;5017186;28;20099;-72
2021/11/06 08:20:54;;;;;;;8.48;6.05;;;;;;;6.97;72.22;100897.16;5021578;28;20041;-71
2021/11/06 08:23:19;;;;;;;12.85;6.07;;;;;;;7.02;71.69;100892.69;5021357;28;20788;-73
2021/11/06 08:25:47;;;;;;;8.82;5.72;;;;;;;7.13;71.96;100893.38;5019621;28;20124;-73
2021/11/06 08:28:12;;;;;;;8.57;5.70;;;;;;;7.15;71.02;100888.97;5021321;28;20124;-72
2021/11/06 08:30:38;;;;;;;8.63;5.85;;;;;;;7.18;71.16;100881.03;5024738;28;20036;-72
2021/11/06 08:33:04;;;;;;;7.35;4.50;;;;;;;7.23;70.94;100879.19;5025559;28;20033;-70
2021/11/06 08:35:30;;;;;;;14.90;5.93;;;;;;;7.28;71.15;100877.34;5025390;28;20735;-70
2021/11/06 08:37:58;;;;;;;12.95;8.23;;;;;;;7.38;70.81;100888.53;5024928;28;20037;-70
2021/11/06 08:40:25;;;;;;;8.15;5.45;;;;;;;7.52;70.15;100888.28;5024237;28;20178;-69
2021/11/06 08:42:51;;;;;;;8.55;5.72;;;;;;;7.65;69.52;100878.41;5025334;28;20044;-70
2021/11/06 08:45:16;;;;;;;6.97;4.80;;;;;;;8.15;68.31;100887.03;5024903;28;20128;-71
2021/11/06 08:47:42;;;;;;;12.75;5.72;;;;;;;8.69;67.18;100888.47;5024625;28;20227;-70
2021/11/06 08:50:11;;;;;;;9.23;5.65;;;;;;;9.61;64.10;100881.72;5022926;28;20409;-71
2021/11/06 08:52:38;;;;;;;6.20;4.57;;;;;;;10.40;60.86;100882.09;5024961;28;20548;-72
2021/11/06 08:55:04;;;;;;;7.95;4.50;;;;;;;10.94;59.58;100874.19;5023430;28;20060;-71
2021/11/06 08:57:30;;;;;;;7.40;4.32;;;;;;;11.68;57.01;100871.63;5022767;28;20053;-71
2021/11/06 09:00:00;;;;;;;7.30;4.03;;;;;;;12.41;54.81;100872.44;5024819;28;20080;-72
2021/11/06 09:02:26;;;;;;;9.45;4.93;;;;;;;12.77;53.23;100863.94;5023591;28;20099;-73
2021/11/06 09:04:51;;;;;;;5.90;3.92;;;;;;;13.28;52.49;100875.94;5021819;28;20044;-71
2021/11/06 09:07:17;;;;;;;8.52;5.05;;;;;;;13.60;51.17;100871.88;5023527;28;20120;-71
2021/11/06 09:09:44;;;;;;;5.68;4.47;;;;;;;13.80;50.95;100864.84;5024316;28;20041;-72
2021/11/06 09:12:11;;;;;;;9.50;3.72;;;;;;;13.16;52.02;100863.19;5024179;28;20527;-72
2021/11/06 09:14:37;;;;;;;6.45;3.80;;;;;;;12.81;53.06;100861.09;5022652;28;20033;-73
2021/11/06 09:17:02;;;;;;;7.95;4.40;;;;;;;13.37;51.79;100866.75;5020885;28;20033;-72
2021/11/06 09:19:28;;;;;;;7.43;3.88;;;;;;;13.93;50.34;100872.19;5023937;28;20101;-72
2021/11/06 09:21:53;;;;;;;5.78;3.75;;;;;;;14.21;48.95;100862.09;5021667;28;20042;-71
2021/11/06 09:24:19;;;;;;;9.07;3.95;;;;;;;14.57;48.54;100864.78;5021112;28;20030;-71
2021/11/06 09:26:46;;;;;;;5.95;3.33;;;;;;;15.03;47.26;100857.19;5020030;28;20034;-72
2021/11/06 09:29:14;;;;;;;7.63;4.78;;;;;;;15.42;46.45;100859.59;5024689;28;20045;-73
2021/11/06 09:31:41;;;;;;;5.82;3.42;;;;;;;15.75;45.36;100852.63;5023729;28;20037;-72
2021/11/06 09:34:08;;;;;;;6.05;3.85;;;;;;;16.03;44.57;100855.50;5023953;28;20392;-72
2021/11/06 09:36:33;;;;;;;5.03;3.25;;;;;;;15.97;44.71;100863.81;5021779;28;20053;-72
2021/11/06 09:39:01;;;;;;;7.50;3.00;;;;;;;15.79;44.74;100854.19;5024376;28;20527;-71
2021/11/06 09:41:27;;;;;;;5.30;3.30;;;;;;;15.39;46.00;100851.81;5022443;28;20061;-72
2021/11/06 09:43:53;;;;;;;7.53;2.83;;;;;;;15.28;46.10;100867.44;5019871;28;20681;-71
2021/11/06 09:46:18;;;;;;;4.30;2.80;;;;;;;15.03;46.77;100859.84;5023226;28;20042;-72
2021/11/06 09:48:46;;;;;;;4.53;2.95;;;;;;;14.89;47.42;100854.38;5023782;28;20898;-72
2021/11/06 09:51:16;;;;;;;5.93;3.10;;;;;;;15.63;46.19;100854.13;5023042;28;20041;-71
2021/11/06 09:53:43;;;;;;;6.00;2.97;;;;;;;15.84;44.98;100860.94;5022360;28;20809;-71
2021/11/06 09:56:10;;;;;;;6.68;2.75;;;;;;;15.25;46.20;100862.28;5022224;28;20563;-72
2021/11/06 09:58:36;;;;;;;6.80;2.83;;;;;;;14.36;48.44;100861.34;5023695;28;20481;-72
2021/11/06 10:01:03;;;;;;;4.55;2.80;;;;;;;13.62;50.07;100874.50;5023996;28;20120;-72
2021/11/06 10:03:28;;;;;;;4.43;3.25;;;;;;;12.94;52.64;100872.03;5021506;28;20493;-72
2021/11/06 10:05:56;;;;;;;5.15;3.17;;;;;;;13.09;52.58;100870.53;5023399;28;20041;-72
2021/11/06 10:08:23;;;;;;;5.38;3.13;;;;;;;12.58;53.75;100870.00;5021642;28;20076;-73
2021/11/06 10:10:53;;;;;;;6.88;2.60;;;;;;;12.77;52.94;100867.44;5014091;28;20042;-72
2021/11/06 10:13:20;;;;;;;7.43;2.80;;;;;;;12.36;54.83;100867.34;5003667;28;20497;-72
2021/11/06 10:15:48;;;;;;;5.03;2.95;;;;;;;12.16;55.85;100872.53;5002103;28;20583;-72
2021/11/06 10:18:17;;;;;;;6.00;3.70;;;;;;;11.90;55.81;100870.88;5003412;28;20037;-71
2021/11/06 10:20:45;;;;;;;7.68;4.13;;;;;;;11.63;56.62;100864.78;5001214;28;20034;-71
2021/11/06 10:23:11;;;;;;;6.07;3.20;;;;;;;11.76;56.91;100861.66;5003928;28;20536;-71
2021/11/06 10:25:37;;;;;;;3.90;2.83;;;;;;;11.68;57.08;100855.78;5002805;28;20141;-71
2021/11/06 10:28:15;;;;;;;6.25;3.67;;;;;;;11.74;57.49;100855.56;5002219;28;20033;-71
2021/11/06 10:30:42;;;;;;;4.47;3.28;;;;;;;11.65;57.25;100840.03;5001509;28;20057;-71
2021/11/06 10:33:17;;;;;;;5.32;3.38;;;;;;;11.40;58.19;100840.06;5001887;28;20042;-71
2021/11/06 10:35:46;;;;;;;3.97;2.97;;;;;;;11.44;57.58;100838.19;5003835;28;20044;-72
2021/11/06 10:38:18;;;;;;;5.63;3.13;;;;;;;11.52;58.33;100839.63;5003437;28;20041;-72
2021/11/06 10:40:48;;;;;;;12.10;3.10;;;;;;;11.55;58.35;100839.53;5002605;28;20464;-71
2021/11/06 10:43:16;;;;;;;7.63;3.50;;;;;;;11.31;58.44;100833.34;5003820;28;20030;-71
2021/11/06 10:45:45;;;;;;;6.50;3.13;;;;;;;11.27;59.59;100844.94;5001239;28;20492;-73
2021/11/06 10:48:14;;;;;;;7.32;3.50;;;;;;;11.42;58.94;100842.66;4987616;28;20562;-71
2021/11/06 10:50:45;;;;;;;4.53;2.92;;;;;;;11.56;58.52;100835.94;5003452;28;20486;-71
2021/11/06 10:53:14;;;;;;;8.43;3.20;;;;;;;11.62;58.69;100837.53;5022974;28;20359;-72
2021/11/06 10:55:42;;;;;;;7.53;2.80;;;;;;;11.50;58.97;100835.34;5022570;28;20046;-71
2021/11/06 10:58:26;;;;;;;4.75;2.67;;;;;;;11.51;59.27;100831.75;5022544;28;20044;-73
2021/11/06 11:01:04;;;;;;;6.45;3.00;;;;;;;11.63;58.36;100826.03;5022015;28;20033;-70
2021/11/06 11:03:35;;;;;;;6.65;2.70;;;;;;;11.74;58.32;100820.34;5022730;28;20037;-71
2021/11/06 11:06:10;;;;;;;4.63;2.83;;;;;;;11.83;58.29;100823.50;5021637;28;20064;-70
2021/11/06 11:08:49;;;;;;;7.22;3.78;;;;;;;11.74;57.50;100815.94;5022204;28;20033;-71
2021/11/06 11:11:19;;;;;;;4.28;2.60;;;;;;;11.74;58.03;100808.00;5021251;28;20571;-71
2021/11/06 11:13:56;;;;;;;6.45;3.30;;;;;;;11.64;57.93;100790.78;5020675;28;20049;-71